Estación Meteorológica Peña el Pijo (Robertgarden) [ 03/06/21 14:08:45 CET ]

Fecha Hora Presion(HPa) Temp (°C) Humedad % Rocio (°C) Viento ( m/s) Direccion Lluvia 1Hora(mm) Lluvia 24H(mm) LLuvia Total(mm)
2021-Feb-22 01:09:39 999.200 3.6 91 2.2 - N     89.61
2021-Feb-22 02:11:09 999.900 3.9 89 2.2 - N     89.61
2021-Feb-22 03:12:57 1000.700 3.6 88 1.8 - N     89.61
2021-Feb-22 04:11:09 1000.400 3.8 81 0.9 - N     89.61
2021-Feb-22 05:09:51 1001.000 3.9 77 0.2 - N     89.61
2021-Feb-22 06:09:55 1001.700 3.9 77 0.2 - N     89.61
2021-Feb-22 07:09:19 1002.800 3.9 76 0.0 - N     89.61
2021-Feb-22 08:09:26 1003.700 3.6 75 -0.4 - N     89.61
2021-Feb-22 09:09:16 1004.600 9.4 55 0.8 - N     89.61
2021-Feb-22 10:09:22 1005.300 9.4 52 0.0 - N     89.61
2021-Feb-22 11:09:39 1006.000 10.4 46 -0.8 - N     89.61
2021-Feb-22 12:09:32 1006.400 10.3 47 -0.6 - N     89.61
2021-Feb-22 13:09:35 1006.400 9.9 52 0.5 - N     89.61
2021-Feb-22 14:09:21 1006.700 10.5 49 0.2 - N     89.61
2021-Feb-22 15:09:35 1006.900 11.9 45 0.3 - N     89.61
2021-Feb-22 16:09:42 1007.300 9.5 51 -0.1 - N     89.61
2021-Feb-22 17:09:55 1008.000 7.9 55 -0.6 - N     89.61
2021-Feb-22 18:09:10 1009.000 7.1 60 -0.1 - N     89.61
2021-Feb-22 19:09:50 1010.100 6.2 64 -0.1 - N     89.61
2021-Feb-22 20:09:37 1011.200 6.1 66 0.2 - N     89.61
2021-Feb-22 21:09:19 1011.900 5.9 69 0.7 - N     89.61
2021-Feb-22 22:09:35 1012.600 5.7 71 0.9 - N     89.61
2021-Feb-22 23:09:36 1012.700 5.7 72 1.1 - N     89.61

Temperatura Máxima:11°    Temperatura Mínima:
Presión Máxima:1012.700 Hpa    Presión Mínima:999.200 Hpa


Volver